Aérodrome :
LOGIN :

S'inscrire | Disclaimer

   EN    FR    IT 

 










Légende :    VFR   VFR Marginal   IFR   IFR Intensif   IFR Très Intensif
Visi : 
Plafond : 
>= 8 km
>= 3000ft
5 à 8 km
1000 à 3000 ft
1500m à 5 km
500 à 1000 ft
800 à 1500m
200 à 500 ft
< 800m
< 200 ft
Symboles :   Orages  Brouillard  Fortes neiges  Fortes précipitations  Vent > 20 kt
SIGMETs :   Divers  Orages  Givrage  Turbulence  Onde Orograph.  Cendres Volcan.






- Altitude de l'aérodrome : 22 ft
- Code IATA : LDY


EGAE - Londonderry Eglington

DERNIER METAR :
  • 171550Z 27013KT 9999 FEW020 SCT047 06/03 Q1010

METARs EXPIRÉS :
  • 171520Z 24009KT 9999 FEW020 SCT045 06/04 Q1010
  • 171450Z 25009KT 9999 FEW018 SCT025 BKN039 05/04 Q1009
  • 171420Z 25009KT 9999 FEW014 SCT025 05/04 Q1009
  • 171350Z 23008KT 9999 FEW012 SCT025 05/04 Q1008
  • 171320Z 23007KT 9999 VCSH FEW009 SCT021 05/03 Q1008
  • 171250Z 23011KT 9999 FEW011 SCT018 BKN040 05/04 Q1007

TAF TAF EGAE
Valide du 17 à 15h jusqu'au 17 à 21h UTC


171355Z 1715/1721 28009KT 9999 FEW012 SCT030
PROB30
TEMPO 1716/1721 9000 -SHRA



MET'MAP, la Météo Aéronautique d'un coup d'oeil ! - Copyright ORBIFLY Décembre 2007 - Disclaimer

ORBIFLY MET'MAP TEAM :

Programmation & Développement : Alexandra Zaïnal
Sur une idée originale de : Baudouin d'Aumeries
Assistance à la programmation : Marc-Olivier Méhu
Soutien technique & logistique : Manuel Goepfert

Contact : metmap@orbifly.com




SOURCES & CREDITS :

   NOAA